Time;durP1;ratioP1;P1;durP2;ratioP2;P2;SDS_P1;SDS_P2;PMS_P1;PMS_P2;Temp;Humidity;BMP_temperature;BMP_pressure;BME280_temperature;BME280_humidity;BME280_pressure;Samples;Min_cycle;Max_cycle;Signal;HPM_P1;HPM_P2
2021/11/25 00:01:24;;;;;;;31.35;16.30;;;1.50;99.90;;;;;;5034350;28;20029;-57
2021/11/25 00:03:50;;;;;;;35.28;17.27;;;1.50;99.90;;;;;;5033162;28;20056;-57
2021/11/25 00:06:16;;;;;;;36.13;16.73;;;1.40;99.90;;;;;;5033292;28;20422;-56
2021/11/25 00:08:42;;;;;;;32.95;16.25;;;;;;;;;;5033993;28;20545;-58
2021/11/25 00:11:07;;;;;;;35.78;17.08;;;1.10;99.90;;;;;;5033265;28;20383;-58
2021/11/25 00:13:33;;;;;;;35.33;18.38;;;0.60;99.90;;;;;;5033820;28;20021;-56
2021/11/25 00:15:59;;;;;;;31.15;15.95;;;1.10;99.90;;;;;;5032891;28;20056;-56
2021/11/25 00:18:25;;;;;;;34.50;16.10;;;1.10;99.90;;;;;;5033309;28;20029;-56
2021/11/25 00:20:53;;;;;;;35.78;17.23;;;0.80;99.90;;;;;;5033627;28;20030;-55
2021/11/25 00:23:18;;;;;;;36.92;18.13;;;1.20;99.90;;;;;;5033442;28;20029;-57
2021/11/25 00:25:44;;;;;;;30.67;15.07;;;0.70;99.90;;;;;;5032484;28;20029;-56
2021/11/25 00:28:10;;;;;;;34.55;16.52;;;0.60;99.90;;;;;;5033390;28;20017;-55
2021/11/25 00:30:35;;;;;;;34.33;16.83;;;0.80;99.90;;;;;;5033304;28;20089;-55
2021/11/25 00:33:01;;;;;;;32.22;15.90;;;0.40;99.90;;;;;;5033022;28;20376;-57
2021/11/25 00:35:26;;;;;;;38.05;17.55;;;1.40;99.90;;;;;;5030514;28;20079;-56
2021/11/25 00:37:52;;;;;;;37.95;17.25;;;0.20;99.90;;;;;;5032481;28;20021;-56
2021/11/25 00:40:19;;;;;;;31.73;15.43;;;0.80;99.90;;;;;;5033155;28;20530;-54
2021/11/25 00:42:45;;;;;;;35.53;17.80;;;0.50;99.90;;;;;;5012098;28;20064;-59
2021/11/25 00:45:12;;;;;;;34.53;16.52;;;0.40;99.90;;;;;;5013089;28;20442;-55
2021/11/25 00:47:39;;;;;;;32.67;15.73;;;0.30;99.90;;;;;;5031465;28;20112;-57
2021/11/25 00:50:06;;;;;;;35.08;15.98;;;0.60;99.90;;;;;;5032821;28;20022;-57
2021/11/25 00:52:32;;;;;;;39.03;16.08;;;0.40;99.90;;;;;;5032887;28;20522;-57
2021/11/25 00:54:58;;;;;;;41.30;17.77;;;0.50;99.90;;;;;;5032255;28;20033;-54
2021/11/25 00:57:24;;;;;;;38.90;17.85;;;0.10;99.90;;;;;;5032873;28;20060;-57
2021/11/25 00:59:51;;;;;;;30.98;16.38;;;0.00;99.90;;;;;;5032059;28;20029;-57
2021/11/25 01:02:18;;;;;;;35.00;16.38;;;0.30;99.90;;;;;;5033328;28;20105;-58
2021/11/25 01:04:44;;;;;;;36.58;17.23;;;0.70;99.90;;;;;;5032126;28;20040;-57
2021/11/25 01:07:10;;;;;;;34.58;16.27;;;0.20;99.90;;;;;;5032033;28;20026;-56
2021/11/25 01:09:36;;;;;;;38.00;18.15;;;0.00;99.90;;;;;;5032569;28;20040;-55
2021/11/25 01:12:02;;;;;;;34.60;17.13;;;0.00;99.90;;;;;;5032593;28;20022;-57
2021/11/25 01:14:29;;;;;;;35.95;17.08;;;0.20;99.90;;;;;;5014570;28;20033;-58
2021/11/25 01:16:55;;;;;;;33.78;16.38;;;0.40;99.90;;;;;;5032339;28;20051;-57
2021/11/25 01:19:21;;;;;;;35.03;16.08;;;0.20;99.90;;;;;;5032686;28;20112;-57
2021/11/25 01:21:46;;;;;;;34.22;16.85;;;0.60;99.90;;;;;;5032205;28;20545;-57
2021/11/25 01:24:12;;;;;;;36.83;17.50;;;0.50;99.90;;;;;;5031820;28;20037;-56
2021/11/25 01:26:38;;;;;;;32.47;16.88;;;0.00;99.90;;;;;;5031545;28;20551;-59
2021/11/25 01:29:04;;;;;;;31.30;15.13;;;-0.10;99.90;;;;;;5032816;28;20551;-57
2021/11/25 01:31:29;;;;;;;33.78;16.00;;;0.10;99.90;;;;;;5031766;28;20029;-57
2021/11/25 01:33:55;;;;;;;35.95;15.93;;;0.00;99.90;;;;;;5032120;28;20035;-56
2021/11/25 01:36:21;;;;;;;35.30;17.20;;;0.00;99.90;;;;;;5031241;28;20064;-56
2021/11/25 01:38:47;;;;;;;37.10;17.73;;;;;;;;;;5031634;28;20029;-57
2021/11/25 01:41:12;;;;;;;37.38;17.38;;;0.50;99.90;;;;;;5032248;28;20440;-58
2021/11/25 01:43:38;;;;;;;38.83;17.63;;;-0.20;99.90;;;;;;5032065;28;20063;-56
2021/11/25 01:46:17;;;;;;;38.42;17.25;;;0.50;99.90;;;;;;5031049;28;20034;-57
2021/11/25 01:48:44;;;;;;;38.58;16.90;;;0.20;99.90;;;;;;5032235;28;20438;-58
2021/11/25 01:51:11;;;;;;;38.85;17.98;;;0.30;99.90;;;;;;5031700;28;20083;-57
2021/11/25 01:53:37;;;;;;;36.83;16.70;;;-0.30;99.90;;;;;;5031723;28;20034;-57
2021/11/25 01:56:08;;;;;;;38.83;18.10;;;-0.30;99.90;;;;;;5031074;28;20183;-55
2021/11/25 01:58:34;;;;;;;38.78;17.73;;;-0.20;99.90;;;;;;5031805;28;20376;-55
2021/11/25 02:01:04;;;;;;;41.55;18.02;;;-0.20;99.90;;;;;;5031913;28;20033;-56
2021/11/25 02:03:30;;;;;;;34.90;16.88;;;-0.10;99.90;;;;;;5031027;28;20483;-56
2021/11/25 02:05:56;;;;;;;39.10;17.48;;;-0.10;99.90;;;;;;5030992;28;20048;-57
2021/11/25 02:08:21;;;;;;;41.40;17.35;;;-0.10;99.90;;;;;;5013267;28;20036;-56
2021/11/25 02:10:50;;;;;;;35.75;16.63;;;-0.10;99.90;;;;;;5031281;28;20025;-58
2021/11/25 02:13:16;;;;;;;37.95;17.88;;;0.00;99.90;;;;;;5031705;28;20040;-58
2021/11/25 02:15:42;;;;;;;36.28;16.10;;;-0.30;99.90;;;;;;5030473;28;20029;-58
2021/11/25 02:18:11;;;;;;;38.17;16.88;;;0.30;99.90;;;;;;5031666;28;20033;-57
2021/11/25 02:20:40;;;;;;;39.03;17.13;;;0.00;99.90;;;;;;5031499;28;20053;-57
2021/11/25 02:23:08;;;;;;;38.60;18.33;;;-0.10;99.90;;;;;;5031354;28;20033;-57
2021/11/25 02:25:34;;;;;;;38.38;18.33;;;0.10;99.90;;;;;;5030572;28;20080;-56
2021/11/25 02:28:01;;;;;;;37.05;18.33;;;0.40;99.90;;;;;;5031265;28;20026;-57
2021/11/25 02:30:26;;;;;;;38.38;17.45;;;0.00;99.90;;;;;;5031706;28;20389;-56
2021/11/25 02:32:52;;;;;;;41.50;19.38;;;0.10;99.90;;;;;;5012871;28;20030;-55
2021/11/25 02:35:30;;;;;;;37.78;17.80;;;0.10;99.90;;;;;;5030494;28;20029;-57
2021/11/25 02:37:56;;;;;;;38.92;17.77;;;-0.10;99.90;;;;;;5033394;28;20331;-58
2021/11/25 02:40:26;;;;;;;37.50;17.50;;;0.50;99.90;;;;;;5037341;28;20037;-59
2021/11/25 02:42:55;;;;;;;36.92;16.58;;;-0.10;99.90;;;;;;5036941;28;20033;-58
2021/11/25 02:45:22;;;;;;;40.15;19.00;;;0.30;99.90;;;;;;5032343;28;20029;-56
2021/11/25 02:47:48;;;;;;;37.63;18.55;;;0.40;99.90;;;;;;5013517;28;20379;-55
2021/11/25 02:50:16;;;;;;;39.58;18.60;;;0.50;99.90;;;;;;5031782;28;20025;-56
2021/11/25 02:52:43;;;;;;;36.90;17.10;;;0.40;99.90;;;;;;5030155;28;20491;-54
2021/11/25 02:55:10;;;;;;;34.45;17.65;;;0.10;99.90;;;;;;5029972;28;20395;-55
2021/11/25 02:57:40;;;;;;;39.42;16.63;;;0.00;99.90;;;;;;5031169;28;20037;-55
2021/11/25 03:00:21;;;;;;;32.65;16.63;;;-0.20;99.90;;;;;;5030976;28;20033;-54
2021/11/25 03:03:07;;;;;;;39.15;18.13;;;0.60;99.90;;;;;;5029494;28;20388;-58
2021/11/25 03:05:34;;;;;;;37.65;18.02;;;0.60;99.90;;;;;;5028719;28;20511;-57
2021/11/25 03:08:05;;;;;;;37.90;18.05;;;0.10;99.90;;;;;;5031255;28;20748;-58
2021/11/25 03:10:50;;;;;;;41.55;18.08;;;0.30;99.90;;;;;;5030697;28;20026;-58
2021/11/25 03:13:19;;;;;;;36.80;17.33;;;0.70;99.90;;;;;;5030899;28;20537;-58
2021/11/25 03:15:45;;;;;;;40.38;17.85;;;0.90;99.90;;;;;;5030114;28;20021;-58
2021/11/25 03:18:12;;;;;;;38.30;17.80;;;0.50;99.90;;;;;;5031170;28;20037;-58
2021/11/25 03:20:42;;;;;;;36.05;16.45;;;0.50;99.90;;;;;;5030159;28;21007;-57
2021/11/25 03:23:09;;;;;;;38.17;17.38;;;0.80;99.90;;;;;;5030712;28;20513;-56
2021/11/25 03:25:36;;;;;;;36.03;17.38;;;-0.10;99.90;;;;;;5033986;28;20029;-58
2021/11/25 03:28:02;;;;;;;39.25;17.33;;;0.70;99.90;;;;;;5034428;28;20543;-58
2021/11/25 03:30:28;;;;;;;41.13;18.67;;;0.80;99.90;;;;;;5034534;28;20080;-57
2021/11/25 03:32:54;;;;;;;39.08;17.50;;;;;;;;;;5033870;28;20037;-58
2021/11/25 03:35:20;;;;;;;35.03;16.77;;;0.50;99.90;;;;;;5033771;28;20053;-58
2021/11/25 03:37:46;;;;;;;39.22;18.30;;;0.50;99.90;;;;;;5034096;28;20517;-58
2021/11/25 03:40:12;;;;;;;32.33;16.42;;;0.80;99.90;;;;;;5034332;28;20018;-58
2021/11/25 03:42:38;;;;;;;34.25;16.58;;;0.60;99.90;;;;;;5034141;28;20030;-58
2021/11/25 03:45:06;;;;;;;43.67;17.48;;;1.10;99.90;;;;;;5033261;28;20120;-57
2021/11/25 03:47:32;;;;;;;36.38;17.20;;;1.00;99.90;;;;;;5034419;28;20124;-58
2021/11/25 03:49:58;;;;;;;34.55;16.90;;;0.60;99.90;;;;;;5033749;28;20029;-58
2021/11/25 03:52:24;;;;;;;40.75;19.15;;;0.70;99.90;;;;;;5034421;28;20026;-58
2021/11/25 03:54:54;;;;;;;31.80;16.27;;;1.20;99.90;;;;;;5032357;28;20052;-59
2021/11/25 03:57:24;;;;;;;33.40;16.20;;;1.00;99.90;;;;;;5015854;28;20516;-57
2021/11/25 03:59:51;;;;;;;34.90;16.35;;;1.30;99.90;;;;;;5034512;28;20038;-58
2021/11/25 04:02:18;;;;;;;35.53;17.65;;;1.90;99.90;;;;;;5033995;28;20033;-59
2021/11/25 04:04:44;;;;;;;37.72;17.20;;;0.80;99.90;;;;;;5033233;28;20022;-57
2021/11/25 04:07:10;;;;;;;33.05;16.48;;;1.00;99.90;;;;;;5033489;28;20411;-58
2021/11/25 04:09:35;;;;;;;32.83;16.75;;;0.70;99.90;;;;;;5033542;28;20151;-58
2021/11/25 04:12:01;;;;;;;32.30;16.60;;;0.80;99.90;;;;;;5033529;28;20768;-57
2021/11/25 04:14:27;;;;;;;33.67;17.02;;;;;;;;;;5032979;28;20033;-58
2021/11/25 04:16:53;;;;;;;34.08;17.15;;;1.00;99.90;;;;;;5033871;28;20044;-55
2021/11/25 04:19:18;;;;;;;31.50;16.50;;;0.80;99.90;;;;;;5033391;28;20029;-56
2021/11/25 04:21:44;;;;;;;32.92;15.55;;;1.10;99.90;;;;;;5033259;28;20042;-57
2021/11/25 04:24:12;;;;;;;34.13;16.90;;;0.30;99.90;;;;;;5033189;28;20148;-58
2021/11/25 04:26:38;;;;;;;31.73;16.45;;;1.20;99.90;;;;;;5033020;28;20040;-58
2021/11/25 04:29:03;;;;;;;30.25;15.80;;;0.90;99.90;;;;;;5033121;28;20104;-57
2021/11/25 04:36:58;;;;;;;35.28;17.38;;;1.10;99.90;;;;;;5031089;28;20045;-58
2021/11/25 04:39:23;;;;;;;39.28;17.33;;;1.00;99.90;;;;;;5033660;28;20030;-55
2021/11/25 04:41:49;;;;;;;36.72;17.55;;;1.00;99.90;;;;;;5032846;28;20037;-58
2021/11/25 04:44:15;;;;;;;34.97;16.92;;;1.40;99.90;;;;;;5031879;28;20116;-59
2021/11/25 04:46:40;;;;;;;33.40;16.95;;;1.00;99.90;;;;;;5032411;28;20049;-55
2021/11/25 04:49:06;;;;;;;34.88;16.65;;;1.10;99.90;;;;;;5033532;28;20387;-56
2021/11/25 04:51:32;;;;;;;33.83;16.40;;;0.70;99.90;;;;;;5032570;28;20034;-58
2021/11/25 04:53:58;;;;;;;37.55;17.65;;;0.90;99.90;;;;;;5033527;28;20025;-58
2021/11/25 04:56:24;;;;;;;32.90;16.98;;;1.10;99.90;;;;;;5031988;28;20033;-58
2021/11/25 04:58:50;;;;;;;32.10;17.25;;;0.90;99.90;;;;;;5032438;28;20550;-58
2021/11/25 05:01:16;;;;;;;34.33;17.23;;;;;;;;;;5032794;28;20491;-57
2021/11/25 05:03:41;;;;;;;34.50;17.20;;;1.40;99.90;;;;;;5032586;28;20067;-59
2021/11/25 05:06:07;;;;;;;36.75;17.52;;;1.10;99.90;;;;;;5031728;28;20570;-57
2021/11/25 05:08:33;;;;;;;34.17;17.20;;;0.30;99.90;;;;;;5032611;28;20022;-59
2021/11/25 05:10:59;;;;;;;36.03;18.02;;;1.30;99.90;;;;;;5033642;28;20017;-57
2021/11/25 05:13:24;;;;;;;34.03;17.15;;;0.70;99.90;;;;;;5033158;28;20386;-57
2021/11/25 05:15:50;;;;;;;38.72;17.85;;;1.00;99.90;;;;;;5031810;28;20033;-56
2021/11/25 05:18:16;;;;;;;36.95;17.67;;;1.30;99.90;;;;;;5032592;28;20091;-59
2021/11/25 05:20:42;;;;;;;36.00;17.80;;;1.10;99.90;;;;;;5032314;28;20029;-57
2021/11/25 05:23:07;;;;;;;37.92;18.98;;;0.80;99.90;;;;;;5032410;28;20038;-57
2021/11/25 05:25:34;;;;;;;35.97;17.65;;;0.70;99.90;;;;;;5031558;28;20025;-58
2021/11/25 05:27:59;;;;;;;34.25;18.60;;;1.10;99.90;;;;;;5032342;28;20392;-57
2021/11/25 05:30:30;;;;;;;38.38;18.25;;;0.90;99.90;;;;;;5024086;28;20028;-63
2021/11/25 05:32:57;;;;;;;35.05;17.92;;;1.40;99.90;;;;;;5031208;28;20044;-62
2021/11/25 05:35:23;;;;;;;36.67;18.38;;;0.80;99.90;;;;;;5039721;28;20026;-63
2021/11/25 05:37:49;;;;;;;34.70;18.38;;;1.50;99.90;;;;;;5045062;28;20040;-60
2021/11/25 05:40:15;;;;;;;33.85;17.65;;;0.90;99.90;;;;;;5032758;28;20040;-61
2021/11/25 05:42:41;;;;;;;36.20;19.02;;;0.90;99.90;;;;;;5032603;28;20476;-62
2021/11/25 05:45:09;;;;;;;38.92;18.70;;;1.00;99.90;;;;;;5031413;28;20061;-62
2021/11/25 05:47:37;;;;;;;34.70;17.92;;;;;;;;;;5031121;28;20108;-62
2021/11/25 05:50:05;;;;;;;38.28;18.85;;;0.60;99.90;;;;;;5032146;28;20021;-62
2021/11/25 05:52:31;;;;;;;35.45;17.58;;;1.00;99.90;;;;;;5031766;28;20048;-63
2021/11/25 05:54:57;;;;;;;38.80;18.73;;;0.90;99.90;;;;;;5030914;28;20104;-60
2021/11/25 05:57:22;;;;;;;38.30;19.05;;;0.90;99.90;;;;;;5031855;28;20136;-60
2021/11/25 05:59:48;;;;;;;37.63;19.30;;;0.90;99.90;;;;;;5032052;28;20036;-59
2021/11/25 06:02:15;;;;;;;34.72;17.35;;;1.10;99.90;;;;;;5031279;28;20112;-60
2021/11/25 06:04:42;;;;;;;37.35;18.60;;;1.00;99.90;;;;;;5031352;28;20153;-74
2021/11/25 06:07:08;;;;;;;37.45;19.02;;;1.00;99.90;;;;;;5031398;28;20495;-74
2021/11/25 06:09:34;;;;;;;32.42;17.75;;;1.20;99.90;;;;;;5031420;28;20079;-75
2021/11/25 06:12:00;;;;;;;33.05;17.58;;;1.30;99.90;;;;;;5029707;28;20021;-73
2021/11/25 06:14:25;;;;;;;33.38;17.75;;;0.90;99.90;;;;;;5029680;28;20037;-63
2021/11/25 06:16:51;;;;;;;33.42;18.05;;;1.20;99.90;;;;;;5029396;28;20071;-62
2021/11/25 06:19:17;;;;;;;35.72;18.02;;;1.30;99.90;;;;;;5012462;28;20060;-61
2021/11/25 06:21:42;;;;;;;40.58;19.83;;;2.30;99.90;;;;;;5029548;28;20044;-62
2021/11/25 06:24:08;;;;;;;34.25;18.00;;;1.00;99.90;;;;;;5029738;28;20038;-64
2021/11/25 06:26:39;;;;;;;32.95;17.42;;;;;;;;;;5031703;28;20025;-67
2021/11/25 06:29:06;;;;;;;32.78;16.90;;;0.80;99.90;;;;;;5031269;28;20052;-68
2021/11/25 06:31:31;;;;;;;33.25;16.83;;;1.10;99.90;;;;;;5029682;28;20772;-67
2021/11/25 06:33:57;;;;;;;35.17;17.45;;;1.20;99.90;;;;;;5030645;28;20029;-65
2021/11/25 06:36:23;;;;;;;37.10;18.83;;;1.10;99.90;;;;;;5028366;28;20079;-67
2021/11/25 06:38:48;;;;;;;32.38;18.50;;;1.00;99.90;;;;;;5029244;28;20025;-68
2021/11/25 06:41:14;;;;;;;35.88;19.25;;;1.20;99.90;;;;;;5030156;28;20102;-67
2021/11/25 06:43:40;;;;;;;35.65;19.23;;;1.10;99.90;;;;;;5029627;28;20168;-67
2021/11/25 06:46:05;;;;;;;34.47;18.77;;;1.50;99.90;;;;;;5029026;28;20045;-67
2021/11/25 06:48:31;;;;;;;34.50;18.45;;;2.10;99.90;;;;;;5031210;28;20112;-68
2021/11/25 06:50:57;;;;;;;37.55;18.20;;;1.20;99.90;;;;;;5031171;28;20112;-67
2021/11/25 06:53:22;;;;;;;36.58;19.17;;;1.30;99.90;;;;;;5029442;28;20095;-62
2021/11/25 06:55:48;;;;;;;35.97;18.77;;;1.30;99.90;;;;;;5029837;28;20098;-64
2021/11/25 06:58:14;;;;;;;38.67;20.10;;;1.50;99.90;;;;;;5030830;28;20084;-62
2021/11/25 07:00:40;;;;;;;34.67;18.92;;;1.40;99.90;;;;;;5030215;28;20025;-64
2021/11/25 07:03:06;;;;;;;42.25;20.77;;;1.50;99.90;;;;;;5030792;28;20487;-63
2021/11/25 07:05:31;;;;;;;44.67;21.05;;;2.30;99.90;;;;;;5030612;28;20083;-64
2021/11/25 07:07:57;;;;;;;38.53;19.02;;;1.40;99.90;;;;;;5030818;28;20033;-64
2021/11/25 07:10:23;;;;;;;37.33;20.08;;;1.40;99.90;;;;;;5031007;28;20022;-63
2021/11/25 07:12:50;;;;;;;35.17;19.85;;;1.50;99.90;;;;;;5030589;28;20025;-64
2021/11/25 07:15:18;;;;;;;34.80;17.95;;;1.30;99.90;;;;;;5029940;28;20033;-65
2021/11/25 07:17:46;;;;;;;35.50;18.17;;;1.50;99.90;;;;;;5030893;28;20514;-63
2021/11/25 07:20:12;;;;;;;36.22;18.55;;;1.50;99.90;;;;;;5030616;28;20503;-63
2021/11/25 07:22:38;;;;;;;36.70;18.35;;;0.80;99.90;;;;;;5030607;28;20025;-63
2021/11/25 07:25:06;;;;;;;32.30;17.13;;;1.60;99.90;;;;;;5029979;28;20038;-63
2021/11/25 07:27:32;;;;;;;38.63;19.77;;;1.50;99.90;;;;;;5031045;28;20017;-63
2021/11/25 07:29:57;;;;;;;35.05;18.85;;;2.40;99.90;;;;;;5030692;28;20022;-62
2021/11/25 07:32:24;;;;;;;49.20;19.90;;;1.20;99.90;;;;;;5030309;28;20025;-62
2021/11/25 07:34:50;;;;;;;36.22;19.23;;;1.50;99.90;;;;;;5030514;28;20030;-63
2021/11/25 07:37:17;;;;;;;39.35;19.55;;;1.40;99.90;;;;;;5029851;28;20517;-63
2021/11/25 07:39:43;;;;;;;39.25;19.70;;;1.40;99.90;;;;;;5030211;28;20029;-61
2021/11/25 07:42:09;;;;;;;35.28;18.52;;;1.50;99.90;;;;;;5030845;28;20517;-61
2021/11/25 07:44:35;;;;;;;41.67;20.80;;;1.40;99.90;;;;;;5029171;28;20042;-65
2021/11/25 07:47:00;;;;;;;45.40;21.98;;;1.40;99.90;;;;;;5030465;28;20040;-63
2021/11/25 07:49:26;;;;;;;45.30;21.38;;;1.50;99.90;;;;;;5030250;28;20442;-64
2021/11/25 07:51:52;;;;;;;39.15;20.98;;;1.80;99.90;;;;;;5030475;28;20409;-63
2021/11/25 07:54:18;;;;;;;42.38;21.30;;;2.70;99.90;;;;;;5029368;28;20064;-61
2021/11/25 07:56:43;;;;;;;40.33;20.17;;;1.40;99.90;;;;;;5030180;28;20445;-63
2021/11/25 07:59:09;;;;;;;43.80;21.48;;;1.50;99.90;;;;;;5031091;28;20079;-63
2021/11/25 08:01:35;;;;;;;43.08;22.00;;;1.70;99.90;;;;;;5030083;28;20035;-63
2021/11/25 08:04:02;;;;;;;43.03;21.55;;;1.70;99.90;;;;;;5030428;28;20538;-63
2021/11/25 08:06:28;;;;;;;40.65;20.85;;;1.80;99.90;;;;;;5029423;28;20037;-62
2021/11/25 08:08:54;;;;;;;43.67;21.05;;;1.10;99.90;;;;;;5029454;28;20104;-62
2021/11/25 08:11:19;;;;;;;43.97;21.98;;;0.90;99.90;;;;;;5035960;28;20022;-62
2021/11/25 08:13:45;;;;;;;40.50;21.33;;;1.50;99.90;;;;;;5040599;28;20080;-62
2021/11/25 08:16:15;;;;;;;51.40;21.25;;;2.00;99.90;;;;;;5038416;28;20168;-64
2021/11/25 08:18:41;;;;;;;39.80;20.55;;;2.30;99.90;;;;;;5036499;28;20025;-60
2021/11/25 08:21:07;;;;;;;44.03;21.55;;;1.80;99.90;;;;;;5034002;28;20508;-63
2021/11/25 08:23:33;;;;;;;45.47;21.60;;;1.70;99.90;;;;;;5033692;28;20602;-62
2021/11/25 08:25:59;;;;;;;45.25;23.38;;;2.00;99.90;;;;;;5032264;28;20104;-62
2021/11/25 08:28:25;;;;;;;41.55;21.15;;;2.00;99.90;;;;;;5034286;28;20438;-60
2021/11/25 08:30:53;;;;;;;45.75;22.08;;;1.50;99.90;;;;;;5033408;28;20032;-61
2021/11/25 08:33:20;;;;;;;40.05;20.92;;;2.10;99.90;;;;;;5033788;28;20500;-61
2021/11/25 08:35:46;;;;;;;47.03;23.45;;;1.60;99.90;;;;;;5015931;28;20038;-61
2021/11/25 08:38:12;;;;;;;43.60;21.67;;;1.90;99.90;;;;;;5032588;28;20045;-62
2021/11/25 08:40:38;;;;;;;43.35;22.75;;;1.60;99.90;;;;;;5033394;28;20033;-61
2021/11/25 08:43:03;;;;;;;46.05;23.58;;;2.30;99.90;;;;;;5033033;28;20037;-61
2021/11/25 08:45:29;;;;;;;43.05;22.45;;;2.10;99.90;;;;;;5032606;28;20596;-60
2021/11/25 08:47:56;;;;;;;55.10;24.10;;;1.80;99.90;;;;;;5033244;28;20022;-61
2021/11/25 08:50:22;;;;;;;51.63;23.75;;;1.80;99.90;;;;;;5033384;28;20116;-62
2021/11/25 08:52:48;;;;;;;48.05;22.38;;;2.20;99.90;;;;;;5032986;28;20505;-63
2021/11/25 08:55:14;;;;;;;50.08;24.63;;;2.10;99.90;;;;;;5032030;28;20116;-63
2021/11/25 08:57:40;;;;;;;45.22;23.70;;;2.30;99.90;;;;;;5028926;28;20117;-66
2021/11/25 09:00:08;;;;;;;43.95;23.25;;;1.90;99.90;;;;;;5043900;28;20081;-65
2021/11/25 09:02:34;;;;;;;41.70;21.65;;;2.00;99.90;;;;;;5032503;28;20108;-61
2021/11/25 09:05:00;;;;;;;47.72;23.45;;;1.90;99.90;;;;;;5032203;28;20142;-64
2021/11/25 09:07:26;;;;;;;50.05;23.85;;;1.90;99.90;;;;;;5032050;28;20465;-61
2021/11/25 09:09:51;;;;;;;44.90;21.35;;;1.80;99.90;;;;;;5032875;28;20432;-64
2021/11/25 09:12:17;;;;;;;44.17;22.17;;;2.40;99.90;;;;;;5032093;28;20079;-60
2021/11/25 09:14:43;;;;;;;48.97;21.98;;;2.40;99.90;;;;;;5032487;28;20403;-60
2021/11/25 09:17:09;;;;;;;45.85;22.15;;;2.10;99.90;;;;;;5032436;28;20347;-64
2021/11/25 09:19:34;;;;;;;46.13;23.00;;;1.80;99.90;;;;;;5032099;28;20075;-65
2021/11/25 09:22:01;;;;;;;49.00;23.08;;;2.00;99.90;;;;;;5032591;28;20161;-61
2021/11/25 09:24:26;;;;;;;54.10;23.92;;;2.20;99.90;;;;;;5010819;28;20034;-59
2021/11/25 09:26:52;;;;;;;50.03;23.13;;;1.90;99.90;;;;;;5016020;28;20040;-60
2021/11/25 09:29:20;;;;;;;52.55;23.73;;;2.60;99.90;;;;;;5032677;28;20436;-65
2021/11/25 09:31:46;;;;;;;53.97;25.70;;;2.00;99.90;;;;;;5032035;28;20026;-62
2021/11/25 09:34:11;;;;;;;50.40;23.73;;;1.90;99.90;;;;;;5032815;28;20032;-60
2021/11/25 09:36:39;;;;;;;48.38;23.35;;;;;;;;;;5031256;28;20104;-63
2021/11/25 09:39:08;;;;;;;54.75;26.15;;;1.90;99.90;;;;;;5032020;28;20029;-63
2021/11/25 09:41:34;;;;;;;49.33;23.55;;;2.10;99.90;;;;;;5032388;28;20036;-64
2021/11/25 09:44:00;;;;;;;55.75;26.55;;;2.20;99.90;;;;;;5032737;28;20029;-62
2021/11/25 09:46:26;;;;;;;54.65;23.10;;;2.40;99.90;;;;;;5031064;28;20030;-64
2021/11/25 09:48:54;;;;;;;59.80;25.25;;;2.80;99.90;;;;;;5031877;28;20025;-63
2021/11/25 09:51:23;;;;;;;51.03;23.33;;;2.10;99.90;;;;;;5032208;28;20024;-64
2021/11/25 09:53:49;;;;;;;51.00;23.58;;;2.70;99.90;;;;;;5031706;28;20061;-64
2021/11/25 09:56:15;;;;;;;52.30;25.00;;;2.10;99.90;;;;;;5031089;28;20033;-65
2021/11/25 09:58:41;;;;;;;50.13;23.13;;;2.60;99.90;;;;;;5032278;28;20037;-62
2021/11/25 10:01:10;;;;;;;46.67;23.23;;;2.10;99.90;;;;;;5031841;28;20384;-64
2021/11/25 10:03:40;;;;;;;50.10;24.08;;;2.10;99.90;;;;;;5031675;28;20033;-64
2021/11/25 10:06:05;;;;;;;50.03;23.90;;;2.30;99.90;;;;;;5030647;28;20029;-63
2021/11/25 10:08:31;;;;;;;49.75;24.10;;;3.00;99.90;;;;;;5031379;28;20025;-64
2021/11/25 10:11:13;;;;;;;51.20;23.83;;;1.80;99.90;;;;;;5032013;28;20087;-62
2021/11/25 10:13:44;;;;;;;60.83;24.30;;;2.80;99.90;;;;;;5031674;28;20049;-63
2021/11/25 10:16:14;;;;;;;55.47;25.13;;;2.30;99.90;;;;;;5031408;28;20268;-63
2021/11/25 10:18:40;;;;;;;47.40;23.00;;;2.60;99.90;;;;;;5029706;28;20048;-63
2021/11/25 10:21:13;;;;;;;50.30;23.45;;;2.30;99.90;;;;;;5031638;28;20033;-64
2021/11/25 10:23:39;;;;;;;52.38;24.42;;;2.70;99.90;;;;;;5031185;28;20021;-63
2021/11/25 10:26:06;;;;;;;54.20;25.55;;;2.40;99.90;;;;;;5028404;28;20040;-62
2021/11/25 10:28:37;;;;;;;51.47;24.80;;;2.60;99.90;;;;;;5031362;28;20036;-62
2021/11/25 10:31:22;;;;;;;58.00;26.35;;;2.60;99.90;;;;;;5030772;28;20392;-61
2021/11/25 10:34:17;;;;;;;48.72;25.33;;;2.40;99.90;;;;;;5031129;28;20518;-61
2021/11/25 10:42:35;;;;;;;54.00;25.30;;;2.20;99.90;;;;;;5009153;28;20045;-63
2021/11/25 10:45:09;;;;;;;50.90;24.00;;;2.30;99.90;;;;;;5021406;28;20431;-64
2021/11/25 10:47:34;;;;;;;55.92;24.48;;;2.50;99.90;;;;;;5031268;28;20040;-62
2021/11/25 10:50:07;;;;;;;49.40;24.40;;;2.50;99.90;;;;;;5031485;28;20736;-63
2021/11/25 10:52:43;;;;;;;;;;;2.30;99.90;;;;;;5031259;28;20520;-63
2021/11/25 10:55:15;;;;;;;46.00;23.90;;;2.40;99.90;;;;;;5030331;28;20279;-64
2021/11/25 10:57:46;;;;;;;53.80;24.25;;;2.10;99.90;;;;;;5031266;28;20039;-65
2021/11/25 11:00:14;;;;;;;53.00;25.13;;;2.30;99.90;;;;;;5037403;28;20155;-64
2021/11/25 11:02:41;;;;;;;48.80;24.52;;;2.30;99.90;;;;;;5031482;28;20050;-64
2021/11/25 11:05:11;;;;;;;50.95;24.27;;;2.50;99.90;;;;;;5030495;28;20038;-62
2021/11/25 11:07:44;;;;;;;45.03;23.10;;;2.80;99.90;;;;;;5030896;28;20499;-61
2021/11/25 11:10:24;;;;;;;50.20;23.90;;;3.60;99.90;;;;;;5031559;28;20511;-63
2021/11/25 11:15:59;;;;;;;53.22;25.27;;;2.20;99.90;;;;;;5011299;28;20100;-61
2021/11/25 11:18:53;;;;;;;49.70;25.35;;;3.10;99.90;;;;;;5026934;28;20033;-63
2021/11/25 11:21:40;;;;;;;51.33;24.50;;;2.50;99.90;;;;;;5030940;28;20518;-64
2021/11/25 11:24:21;;;;;;;49.65;23.58;;;2.80;99.90;;;;;;5028265;28;20080;-63
2021/11/25 11:26:50;;;;;;;67.82;33.20;;;2.60;99.90;;;;;;5034463;28;20460;-63
2021/11/25 11:29:19;;;;;;;49.90;25.23;;;2.80;99.90;;;;;;5031353;28;20030;-63
2021/11/25 11:31:47;;;;;;;47.72;24.15;;;3.30;99.90;;;;;;5030883;28;20040;-63
2021/11/25 11:34:15;;;;;;;48.10;23.60;;;2.80;99.90;;;;;;5032878;28;20032;-64
2021/11/25 11:36:45;;;;;;;42.65;21.40;;;2.40;99.90;;;;;;5031358;28;20060;-64
2021/11/25 11:39:13;;;;;;;43.38;22.30;;;2.80;99.90;;;;;;5034143;28;20492;-65
2021/11/25 11:41:41;;;;;;;46.22;21.92;;;3.30;99.90;;;;;;5030836;28;20415;-64
2021/11/25 11:44:06;;;;;;;44.00;21.67;;;3.40;99.90;;;;;;5031442;28;20121;-65
2021/11/25 11:46:35;;;;;;;45.60;21.55;;;3.00;99.90;;;;;;5033463;28;20129;-63
2021/11/25 11:49:02;;;;;;;47.28;23.05;;;2.90;99.90;;;;;;5034365;28;20026;-64
2021/11/25 11:51:28;;;;;;;43.88;23.08;;;2.80;99.90;;;;;;5034670;28;20033;-63
2021/11/25 11:53:56;;;;;;;44.13;22.38;;;2.60;99.90;;;;;;5033913;28;20033;-63
2021/11/25 11:56:36;;;;;;;42.50;22.30;;;2.70;99.90;;;;;;5033143;28;20515;-64
2021/11/25 11:59:04;;;;;;;46.30;23.42;;;3.00;99.90;;;;;;5034941;28;20021;-63
2021/11/25 12:01:33;;;;;;;48.53;24.35;;;2.40;99.90;;;;;;5034396;28;20030;-62
2021/11/25 12:04:04;;;;;;;48.78;24.10;;;3.00;99.90;;;;;;5034178;28;20033;-63
2021/11/25 12:06:48;;;;;;;45.10;22.48;;;2.90;99.90;;;;;;5032821;28;20492;-63
2021/11/25 12:09:22;;;;;;;48.13;22.27;;;3.00;99.90;;;;;;5034676;28;20124;-63
2021/11/25 12:11:50;;;;;;;45.90;22.48;;;3.20;99.90;;;;;;5029894;28;20017;-63
2021/11/25 12:14:27;;;;;;;43.05;22.45;;;2.50;99.90;;;;;;5033897;28;20032;-62
2021/11/25 12:16:59;;;;;;;40.38;21.10;;;3.00;99.90;;;;;;5040428;28;20484;-69
2021/11/25 12:19:27;;;;;;;37.88;20.58;;;2.90;99.90;;;;;;5050374;28;20029;-66
2021/11/25 12:21:56;;;;;;;38.45;20.25;;;3.00;99.90;;;;;;5033868;28;20045;-66
2021/11/25 12:24:46;;;;;;;44.05;19.45;;;3.10;99.90;;;;;;5032300;28;20036;-68
2021/11/25 12:27:24;;;;;;;39.55;20.77;;;3.00;99.90;;;;;;5014542;28;20018;-67
2021/11/25 12:29:54;;;;;;;40.67;20.17;;;2.90;99.90;;;;;;5026980;28;20404;-66
2021/11/25 12:32:39;;;;;;;35.30;19.60;;;3.30;99.90;;;;;;5033656;28;20041;-67
2021/11/25 12:35:26;;;;;;;41.00;20.88;;;3.00;99.90;;;;;;5033853;28;20030;-66
2021/11/25 12:38:02;;;;;;;36.95;20.15;;;3.00;99.90;;;;;;5032489;28;20036;-66
2021/11/25 12:40:28;;;;;;;38.63;19.15;;;;;;;;;;5033747;28;20025;-67
2021/11/25 12:43:00;;;;;;;37.95;19.90;;;3.10;99.90;;;;;;5038680;28;20029;-68
2021/11/25 12:45:34;;;;;;;36.67;19.08;;;3.00;99.90;;;;;;5019140;28;20130;-68
2021/11/25 13:11:38;;;;;;;44.03;22.02;;;3.70;99.90;;;;;;5043613;28;20060;-67
2021/11/25 13:14:19;;;;;;;39.35;20.45;;;3.50;99.90;;;;;;5035550;28;20032;-68
2021/11/25 13:16:49;;;;;;;40.88;20.63;;;3.60;99.90;;;;;;5031606;28;20033;-63
2021/11/25 13:19:18;;;;;;;39.30;20.45;;;3.40;99.90;;;;;;5035894;28;20053;-64